sensor_id;sensor_type;location;lat;lon;timestamp;P1;durP1;ratioP1;P2;durP2;ratioP2
39242;SDS011;29823;47.404;8.566;2022-09-04T00:01:08;4.22;;;2.35;;
39242;SDS011;29823;47.404;8.566;2022-09-04T00:03:45;6.38;;;2.00;;
39242;SDS011;29823;47.404;8.566;2022-09-04T00:06:18;4.85;;;2.22;;
39242;SDS011;29823;47.404;8.566;2022-09-04T00:08:55;3.88;;;2.40;;
39242;SDS011;29823;47.404;8.566;2022-09-04T00:11:36;6.93;;;2.95;;
39242;SDS011;29823;47.404;8.566;2022-09-04T00:14:13;7.65;;;3.63;;
39242;SDS011;29823;47.404;8.566;2022-09-04T00:16:45;4.60;;;2.42;;
39242;SDS011;29823;47.404;8.566;2022-09-04T00:19:20;3.50;;;2.65;;
39242;SDS011;29823;47.404;8.566;2022-09-04T00:21:58;4.38;;;2.25;;
39242;SDS011;29823;47.404;8.566;2022-09-04T00:24:27;6.38;;;2.10;;
39242;SDS011;29823;47.404;8.566;2022-09-04T00:27:00;3.42;;;2.70;;
39242;SDS011;29823;47.404;8.566;2022-09-04T00:29:34;6.57;;;2.53;;
39242;SDS011;29823;47.404;8.566;2022-09-04T00:32:13;4.18;;;2.40;;
39242;SDS011;29823;47.404;8.566;2022-09-04T00:34:54;4.72;;;2.45;;
39242;SDS011;29823;47.404;8.566;2022-09-04T00:37:32;5.13;;;2.97;;
39242;SDS011;29823;47.404;8.566;2022-09-04T00:40:05;9.20;;;3.10;;
39242;SDS011;29823;47.404;8.566;2022-09-04T00:42:41;3.28;;;2.58;;
39242;SDS011;29823;47.404;8.566;2022-09-04T00:45:24;4.40;;;2.92;;
39242;SDS011;29823;47.404;8.566;2022-09-04T00:48:13;5.93;;;2.83;;
39242;SDS011;29823;47.404;8.566;2022-09-04T00:56:51;5.38;;;2.80;;
39242;SDS011;29823;47.404;8.566;2022-09-04T00:59:37;6.20;;;2.92;;
39242;SDS011;29823;47.404;8.566;2022-09-04T01:02:21;6.78;;;2.63;;
39242;SDS011;29823;47.404;8.566;2022-09-04T01:04:59;9.30;;;2.70;;
39242;SDS011;29823;47.404;8.566;2022-09-04T01:07:46;6.30;;;2.60;;
39242;SDS011;29823;47.404;8.566;2022-09-04T01:10:26;3.08;;;2.50;;
39242;SDS011;29823;47.404;8.566;2022-09-04T01:13:02;5.63;;;3.25;;
39242;SDS011;29823;47.404;8.566;2022-09-04T01:15:38;3.85;;;3.10;;
39242;SDS011;29823;47.404;8.566;2022-09-04T01:18:11;4.55;;;2.95;;
39242;SDS011;29823;47.404;8.566;2022-09-04T01:26:39;5.28;;;3.17;;
39242;SDS011;29823;47.404;8.566;2022-09-04T01:29:15;3.22;;;2.55;;
39242;SDS011;29823;47.404;8.566;2022-09-04T01:31:51;5.25;;;2.65;;
39242;SDS011;29823;47.404;8.566;2022-09-04T01:34:28;5.40;;;3.05;;
39242;SDS011;29823;47.404;8.566;2022-09-04T01:37:06;3.25;;;2.33;;
39242;SDS011;29823;47.404;8.566;2022-09-04T01:39:47;6.80;;;2.83;;
39242;SDS011;29823;47.404;8.566;2022-09-04T01:42:28;4.68;;;3.00;;
39242;SDS011;29823;47.404;8.566;2022-09-04T01:45:07;6.72;;;3.70;;
39242;SDS011;29823;47.404;8.566;2022-09-04T01:47:40;4.47;;;2.92;;
39242;SDS011;29823;47.404;8.566;2022-09-04T01:50:13;5.60;;;3.03;;
39242;SDS011;29823;47.404;8.566;2022-09-04T01:52:48;5.97;;;2.85;;
39242;SDS011;29823;47.404;8.566;2022-09-04T01:55:25;4.28;;;3.25;;
39242;SDS011;29823;47.404;8.566;2022-09-04T01:58:05;6.30;;;3.17;;
39242;SDS011;29823;47.404;8.566;2022-09-04T02:00:43;4.93;;;3.17;;
39242;SDS011;29823;47.404;8.566;2022-09-04T02:03:24;6.37;;;2.80;;
39242;SDS011;29823;47.404;8.566;2022-09-04T02:06:00;4.82;;;2.88;;
39242;SDS011;29823;47.404;8.566;2022-09-04T02:08:47;4.03;;;3.00;;
39242;SDS011;29823;47.404;8.566;2022-09-04T02:11:25;6.85;;;3.20;;
39242;SDS011;29823;47.404;8.566;2022-09-04T02:14:06;4.03;;;2.70;;
39242;SDS011;29823;47.404;8.566;2022-09-04T02:16:45;4.63;;;2.63;;
39242;SDS011;29823;47.404;8.566;2022-09-04T02:19:27;5.15;;;2.88;;
39242;SDS011;29823;47.404;8.566;2022-09-04T02:22:06;8.73;;;3.60;;
39242;SDS011;29823;47.404;8.566;2022-09-04T02:24:42;6.18;;;3.38;;
39242;SDS011;29823;47.404;8.566;2022-09-04T02:27:20;10.07;;;3.33;;
39242;SDS011;29823;47.404;8.566;2022-09-04T02:29:55;4.53;;;3.75;;
39242;SDS011;29823;47.404;8.566;2022-09-04T02:32:30;6.47;;;3.30;;
39242;SDS011;29823;47.404;8.566;2022-09-04T02:35:06;5.07;;;3.30;;
39242;SDS011;29823;47.404;8.566;2022-09-04T02:37:47;5.63;;;3.42;;
39242;SDS011;29823;47.404;8.566;2022-09-04T02:40:26;5.80;;;3.65;;
39242;SDS011;29823;47.404;8.566;2022-09-04T02:43:04;4.47;;;3.35;;
39242;SDS011;29823;47.404;8.566;2022-09-04T02:45:46;6.13;;;3.80;;
39242;SDS011;29823;47.404;8.566;2022-09-04T02:48:23;6.72;;;3.47;;
39242;SDS011;29823;47.404;8.566;2022-09-04T02:51:07;6.88;;;3.40;;
39242;SDS011;29823;47.404;8.566;2022-09-04T02:53:49;4.78;;;3.45;;
39242;SDS011;29823;47.404;8.566;2022-09-04T02:56:26;6.32;;;3.40;;
39242;SDS011;29823;47.404;8.566;2022-09-04T02:59:19;5.40;;;3.88;;
39242;SDS011;29823;47.404;8.566;2022-09-04T03:02:00;4.93;;;4.00;;
39242;SDS011;29823;47.404;8.566;2022-09-04T03:04:30;4.30;;;3.67;;
39242;SDS011;29823;47.404;8.566;2022-09-04T03:07:07;7.05;;;4.68;;
39242;SDS011;29823;47.404;8.566;2022-09-04T03:09:39;6.88;;;4.07;;
39242;SDS011;29823;47.404;8.566;2022-09-04T03:12:20;5.60;;;3.38;;
39242;SDS011;29823;47.404;8.566;2022-09-04T03:14:59;5.28;;;4.18;;
39242;SDS011;29823;47.404;8.566;2022-09-04T03:17:33;4.28;;;3.35;;
39242;SDS011;29823;47.404;8.566;2022-09-04T03:20:10;5.53;;;3.75;;
39242;SDS011;29823;47.404;8.566;2022-09-04T03:22:44;4.20;;;3.17;;
39242;SDS011;29823;47.404;8.566;2022-09-04T03:28:39;3.65;;;2.78;;
39242;SDS011;29823;47.404;8.566;2022-09-04T03:31:16;6.85;;;3.55;;
39242;SDS011;29823;47.404;8.566;2022-09-04T03:33:57;6.55;;;3.28;;
39242;SDS011;29823;47.404;8.566;2022-09-04T03:36:40;7.50;;;3.72;;
39242;SDS011;29823;47.404;8.566;2022-09-04T03:39:15;3.92;;;3.13;;
39242;SDS011;29823;47.404;8.566;2022-09-04T03:41:53;5.40;;;3.60;;
39242;SDS011;29823;47.404;8.566;2022-09-04T03:44:35;8.52;;;3.17;;
39242;SDS011;29823;47.404;8.566;2022-09-04T03:47:18;9.65;;;3.40;;
39242;SDS011;29823;47.404;8.566;2022-09-04T03:49:58;4.63;;;3.35;;
39242;SDS011;29823;47.404;8.566;2022-09-04T03:52:40;4.68;;;3.58;;
39242;SDS011;29823;47.404;8.566;2022-09-04T03:55:25;4.55;;;3.47;;
39242;SDS011;29823;47.404;8.566;2022-09-04T03:58:09;4.82;;;3.20;;
39242;SDS011;29823;47.404;8.566;2022-09-04T04:00:44;4.20;;;3.47;;
39242;SDS011;29823;47.404;8.566;2022-09-04T04:03:29;8.05;;;3.30;;
39242;SDS011;29823;47.404;8.566;2022-09-04T04:06:13;7.65;;;4.00;;
39242;SDS011;29823;47.404;8.566;2022-09-04T04:11:56;11.43;;;3.85;;
39242;SDS011;29823;47.404;8.566;2022-09-04T04:14:51;8.75;;;3.45;;
39242;SDS011;29823;47.404;8.566;2022-09-04T04:17:35;4.68;;;3.63;;
39242;SDS011;29823;47.404;8.566;2022-09-04T04:20:17;8.48;;;3.30;;
39242;SDS011;29823;47.404;8.566;2022-09-04T04:23:11;8.35;;;3.72;;
39242;SDS011;29823;47.404;8.566;2022-09-04T04:25:58;8.32;;;3.40;;
39242;SDS011;29823;47.404;8.566;2022-09-04T04:28:38;11.75;;;3.50;;
39242;SDS011;29823;47.404;8.566;2022-09-04T04:31:28;5.35;;;3.42;;
39242;SDS011;29823;47.404;8.566;2022-09-04T04:34:15;5.80;;;3.78;;
39242;SDS011;29823;47.404;8.566;2022-09-04T04:36:51;6.72;;;3.58;;
39242;SDS011;29823;47.404;8.566;2022-09-04T04:39:26;6.35;;;3.53;;
39242;SDS011;29823;47.404;8.566;2022-09-04T04:42:08;6.88;;;3.80;;
39242;SDS011;29823;47.404;8.566;2022-09-04T04:44:51;7.95;;;3.38;;
39242;SDS011;29823;47.404;8.566;2022-09-04T04:47:57;6.03;;;3.60;;
39242;SDS011;29823;47.404;8.566;2022-09-04T04:50:52;6.70;;;3.72;;
39242;SDS011;29823;47.404;8.566;2022-09-04T04:53:32;10.30;;;3.55;;
39242;SDS011;29823;47.404;8.566;2022-09-04T04:56:10;4.85;;;3.30;;
39242;SDS011;29823;47.404;8.566;2022-09-04T04:58:53;6.90;;;3.45;;
39242;SDS011;29823;47.404;8.566;2022-09-04T05:01:32;10.82;;;4.43;;
39242;SDS011;29823;47.404;8.566;2022-09-04T05:04:11;13.45;;;3.83;;
39242;SDS011;29823;47.404;8.566;2022-09-04T05:06:46;5.30;;;3.67;;
39242;SDS011;29823;47.404;8.566;2022-09-04T05:09:20;10.77;;;4.40;;
39242;SDS011;29823;47.404;8.566;2022-09-04T05:12:00;8.13;;;4.70;;
39242;SDS011;29823;47.404;8.566;2022-09-04T05:14:37;10.93;;;4.68;;
39242;SDS011;29823;47.404;8.566;2022-09-04T05:17:16;7.50;;;4.50;;
39242;SDS011;29823;47.404;8.566;2022-09-04T05:19:51;7.45;;;4.68;;
39242;SDS011;29823;47.404;8.566;2022-09-04T05:22:28;10.02;;;4.70;;
39242;SDS011;29823;47.404;8.566;2022-09-04T05:25:06;8.57;;;4.75;;
39242;SDS011;29823;47.404;8.566;2022-09-04T05:27:47;12.25;;;4.82;;
39242;SDS011;29823;47.404;8.566;2022-09-04T05:30:27;10.70;;;4.80;;
39242;SDS011;29823;47.404;8.566;2022-09-04T05:33:03;6.30;;;4.47;;
39242;SDS011;29823;47.404;8.566;2022-09-04T05:35:41;8.18;;;4.50;;
39242;SDS011;29823;47.404;8.566;2022-09-04T05:38:19;7.18;;;3.90;;
39242;SDS011;29823;47.404;8.566;2022-09-04T05:41:02;5.38;;;3.22;;
39242;SDS011;29823;47.404;8.566;2022-09-04T05:43:38;6.40;;;3.42;;
39242;SDS011;29823;47.404;8.566;2022-09-04T05:46:17;5.53;;;3.15;;
39242;SDS011;29823;47.404;8.566;2022-09-04T05:48:58;6.10;;;3.00;;
39242;SDS011;29823;47.404;8.566;2022-09-04T05:51:43;7.25;;;2.97;;
39242;SDS011;29823;47.404;8.566;2022-09-04T05:57:01;4.15;;;3.13;;
39242;SDS011;29823;47.404;8.566;2022-09-04T05:59:46;4.68;;;2.75;;
39242;SDS011;29823;47.404;8.566;2022-09-04T06:02:31;5.70;;;3.17;;
39242;SDS011;29823;47.404;8.566;2022-09-04T06:05:26;6.68;;;3.70;;
39242;SDS011;29823;47.404;8.566;2022-09-04T06:08:06;5.10;;;3.33;;
39242;SDS011;29823;47.404;8.566;2022-09-04T06:10:56;5.47;;;3.33;;
39242;SDS011;29823;47.404;8.566;2022-09-04T06:13:39;7.00;;;3.00;;
39242;SDS011;29823;47.404;8.566;2022-09-04T06:19:41;7.40;;;3.40;;
39242;SDS011;29823;47.404;8.566;2022-09-04T06:28:45;6.53;;;3.72;;
39242;SDS011;29823;47.404;8.566;2022-09-04T06:31:44;10.23;;;3.15;;
39242;SDS011;29823;47.404;8.566;2022-09-04T06:34:41;7.80;;;3.33;;
39242;SDS011;29823;47.404;8.566;2022-09-04T06:37:26;6.20;;;3.28;;
39242;SDS011;29823;47.404;8.566;2022-09-04T06:40:07;5.88;;;3.33;;
39242;SDS011;29823;47.404;8.566;2022-09-04T06:42:50;5.68;;;3.42;;
39242;SDS011;29823;47.404;8.566;2022-09-04T06:45:31;3.78;;;2.88;;
39242;SDS011;29823;47.404;8.566;2022-09-04T06:48:12;7.65;;;3.38;;
39242;SDS011;29823;47.404;8.566;2022-09-04T06:50:52;5.25;;;3.47;;
39242;SDS011;29823;47.404;8.566;2022-09-04T06:53:35;6.22;;;3.03;;
39242;SDS011;29823;47.404;8.566;2022-09-04T06:56:14;5.82;;;3.00;;
39242;SDS011;29823;47.404;8.566;2022-09-04T07:01:54;3.88;;;2.85;;
39242;SDS011;29823;47.404;8.566;2022-09-04T07:04:34;8.40;;;3.15;;
39242;SDS011;29823;47.404;8.566;2022-09-04T07:07:13;5.60;;;3.28;;
39242;SDS011;29823;47.404;8.566;2022-09-04T07:09:51;8.35;;;2.83;;
39242;SDS011;29823;47.404;8.566;2022-09-04T07:18:36;5.78;;;2.70;;
39242;SDS011;29823;47.404;8.566;2022-09-04T07:21:18;4.18;;;2.72;;
39242;SDS011;29823;47.404;8.566;2022-09-04T07:23:58;5.88;;;2.38;;
39242;SDS011;29823;47.404;8.566;2022-09-04T07:26:32;4.65;;;2.25;;
39242;SDS011;29823;47.404;8.566;2022-09-04T07:29:16;5.53;;;2.20;;
39242;SDS011;29823;47.404;8.566;2022-09-04T07:31:54;3.13;;;2.30;;
39242;SDS011;29823;47.404;8.566;2022-09-04T07:34:30;2.10;;;1.60;;
39242;SDS011;29823;47.404;8.566;2022-09-04T07:37:09;3.58;;;2.28;;
39242;SDS011;29823;47.404;8.566;2022-09-04T07:39:58;3.47;;;2.00;;
39242;SDS011;29823;47.404;8.566;2022-09-04T07:42:34;6.83;;;4.03;;
39242;SDS011;29823;47.404;8.566;2022-09-04T07:45:10;6.13;;;2.00;;
39242;SDS011;29823;47.404;8.566;2022-09-04T07:47:49;6.32;;;2.85;;
39242;SDS011;29823;47.404;8.566;2022-09-04T07:50:25;3.72;;;2.10;;
39242;SDS011;29823;47.404;8.566;2022-09-04T07:53:04;6.32;;;2.58;;
39242;SDS011;29823;47.404;8.566;2022-09-04T07:55:52;5.47;;;2.15;;
39242;SDS011;29823;47.404;8.566;2022-09-04T07:58:37;5.13;;;2.25;;
39242;SDS011;29823;47.404;8.566;2022-09-04T08:01:22;7.63;;;2.20;;
39242;SDS011;29823;47.404;8.566;2022-09-04T08:04:11;3.08;;;2.22;;
39242;SDS011;29823;47.404;8.566;2022-09-04T08:06:55;4.85;;;2.45;;
39242;SDS011;29823;47.404;8.566;2022-09-04T08:09:36;7.45;;;4.93;;
39242;SDS011;29823;47.404;8.566;2022-09-04T08:12:30;3.13;;;2.10;;
39242;SDS011;29823;47.404;8.566;2022-09-04T08:15:12;7.43;;;2.60;;
39242;SDS011;29823;47.404;8.566;2022-09-04T08:17:51;3.53;;;1.98;;
39242;SDS011;29823;47.404;8.566;2022-09-04T08:20:38;4.65;;;1.70;;
39242;SDS011;29823;47.404;8.566;2022-09-04T08:25:48;3.30;;;2.25;;
39242;SDS011;29823;47.404;8.566;2022-09-04T08:28:30;1.85;;;1.52;;
39242;SDS011;29823;47.404;8.566;2022-09-04T08:31:13;4.50;;;1.80;;
39242;SDS011;29823;47.404;8.566;2022-09-04T08:33:53;3.72;;;1.75;;
39242;SDS011;29823;47.404;8.566;2022-09-04T08:36:57;3.38;;;1.77;;
39242;SDS011;29823;47.404;8.566;2022-09-04T08:39:34;3.13;;;1.60;;
39242;SDS011;29823;47.404;8.566;2022-09-04T08:48:39;2.75;;;1.70;;
39242;SDS011;29823;47.404;8.566;2022-09-04T08:52:00;3.53;;;1.98;;
39242;SDS011;29823;47.404;8.566;2022-09-04T08:54:50;3.55;;;1.88;;
39242;SDS011;29823;47.404;8.566;2022-09-04T08:57:56;5.15;;;2.40;;
39242;SDS011;29823;47.404;8.566;2022-09-04T09:03:25;2.50;;;2.00;;
39242;SDS011;29823;47.404;8.566;2022-09-04T09:06:35;3.90;;;2.10;;
39242;SDS011;29823;47.404;8.566;2022-09-04T09:09:49;4.88;;;1.77;;
39242;SDS011;29823;47.404;8.566;2022-09-04T09:15:40;2.53;;;1.65;;
39242;SDS011;29823;47.404;8.566;2022-09-04T09:18:33;3.83;;;1.70;;
39242;SDS011;29823;47.404;8.566;2022-09-04T09:21:08;2.15;;;1.67;;
39242;SDS011;29823;47.404;8.566;2022-09-04T09:23:43;3.95;;;2.17;;
39242;SDS011;29823;47.404;8.566;2022-09-04T09:26:32;2.47;;;2.08;;
39242;SDS011;29823;47.404;8.566;2022-09-04T09:38:55;3.65;;;2.22;;
39242;SDS011;29823;47.404;8.566;2022-09-04T09:41:39;2.75;;;1.63;;
39242;SDS011;29823;47.404;8.566;2022-09-04T09:44:48;2.17;;;1.80;;
39242;SDS011;29823;47.404;8.566;2022-09-04T09:47:52;2.60;;;1.75;;
39242;SDS011;29823;47.404;8.566;2022-09-04T09:50:54;2.90;;;2.00;;
39242;SDS011;29823;47.404;8.566;2022-09-04T09:53:59;3.45;;;1.85;;
39242;SDS011;29823;47.404;8.566;2022-09-04T10:00:07;3.80;;;2.20;;
39242;SDS011;29823;47.404;8.566;2022-09-04T10:05:53;6.43;;;2.70;;
39242;SDS011;29823;47.404;8.566;2022-09-04T10:08:49;3.83;;;2.00;;
39242;SDS011;29823;47.404;8.566;2022-09-04T10:15:11;3.43;;;1.97;;
39242;SDS011;29823;47.404;8.566;2022-09-04T10:24:13;2.28;;;1.90;;
39242;SDS011;29823;47.404;8.566;2022-09-04T10:27:09;6.03;;;1.98;;
39242;SDS011;29823;47.404;8.566;2022-09-04T10:30:04;6.03;;;2.90;;
39242;SDS011;29823;47.404;8.566;2022-09-04T10:35:44;3.42;;;2.13;;
39242;SDS011;29823;47.404;8.566;2022-09-04T10:38:28;4.38;;;2.20;;
39242;SDS011;29823;47.404;8.566;2022-09-04T10:41:19;3.10;;;1.93;;
39242;SDS011;29823;47.404;8.566;2022-09-04T10:44:08;5.15;;;2.20;;
39242;SDS011;29823;47.404;8.566;2022-09-04T10:46:59;4.97;;;1.73;;
39242;SDS011;29823;47.404;8.566;2022-09-04T10:49:51;5.30;;;3.10;;
39242;SDS011;29823;47.404;8.566;2022-09-04T10:55:39;3.15;;;2.03;;
39242;SDS011;29823;47.404;8.566;2022-09-04T10:58:26;3.70;;;2.00;;
39242;SDS011;29823;47.404;8.566;2022-09-04T11:01:11;2.83;;;2.00;;
39242;SDS011;29823;47.404;8.566;2022-09-04T11:04:17;5.00;;;2.15;;
39242;SDS011;29823;47.404;8.566;2022-09-04T11:10:25;3.13;;;1.60;;
39242;SDS011;29823;47.404;8.566;2022-09-04T11:16:21;5.72;;;2.60;;
39242;SDS011;29823;47.404;8.566;2022-09-04T11:22:31;5.93;;;2.03;;
39242;SDS011;29823;47.404;8.566;2022-09-04T11:25:38;2.70;;;2.35;;
39242;SDS011;29823;47.404;8.566;2022-09-04T11:28:40;3.38;;;2.22;;
39242;SDS011;29823;47.404;8.566;2022-09-04T11:31:30;3.35;;;1.73;;
39242;SDS011;29823;47.404;8.566;2022-09-04T11:44:00;6.95;;;3.08;;
39242;SDS011;29823;47.404;8.566;2022-09-04T11:49:56;6.32;;;1.80;;
39242;SDS011;29823;47.404;8.566;2022-09-04T11:52:37;2.65;;;1.70;;
39242;SDS011;29823;47.404;8.566;2022-09-04T11:55:36;1.90;;;1.60;;
39242;SDS011;29823;47.404;8.566;2022-09-04T11:58:27;2.03;;;1.40;;
39242;SDS011;29823;47.404;8.566;2022-09-04T12:01:09;3.13;;;1.63;;
39242;SDS011;29823;47.404;8.566;2022-09-04T12:03:57;2.65;;;1.52;;
39242;SDS011;29823;47.404;8.566;2022-09-04T12:06:48;3.42;;;1.70;;
39242;SDS011;29823;47.404;8.566;2022-09-04T12:09:37;2.20;;;1.40;;
39242;SDS011;29823;47.404;8.566;2022-09-04T12:12:33;1.67;;;1.40;;
39242;SDS011;29823;47.404;8.566;2022-09-04T12:18:31;2.30;;;1.30;;
39242;SDS011;29823;47.404;8.566;2022-09-04T12:21:41;3.38;;;1.90;;
39242;SDS011;29823;47.404;8.566;2022-09-04T12:27:29;3.90;;;2.10;;
39242;SDS011;29823;47.404;8.566;2022-09-04T12:30:13;3.55;;;1.90;;
39242;SDS011;29823;47.404;8.566;2022-09-04T12:33:01;2.05;;;1.77;;
39242;SDS011;29823;47.404;8.566;2022-09-04T12:35:51;2.10;;;1.52;;
39242;SDS011;29823;47.404;8.566;2022-09-04T12:39:10;2.88;;;1.63;;
39242;SDS011;29823;47.404;8.566;2022-09-04T12:41:54;1.90;;;1.70;;
39242;SDS011;29823;47.404;8.566;2022-09-04T12:44:31;2.05;;;1.63;;
39242;SDS011;29823;47.404;8.566;2022-09-04T12:47:12;3.63;;;1.90;;
39242;SDS011;29823;47.404;8.566;2022-09-04T12:49:57;4.57;;;1.80;;
39242;SDS011;29823;47.404;8.566;2022-09-04T12:52:42;6.72;;;1.70;;
39242;SDS011;29823;47.404;8.566;2022-09-04T12:55:24;1.90;;;1.63;;
39242;SDS011;29823;47.404;8.566;2022-09-04T12:58:04;2.17;;;1.33;;
39242;SDS011;29823;47.404;8.566;2022-09-04T13:00:41;3.50;;;1.77;;
39242;SDS011;29823;47.404;8.566;2022-09-04T13:03:23;2.83;;;1.58;;
39242;SDS011;29823;47.404;8.566;2022-09-04T13:06:11;2.63;;;1.77;;
39242;SDS011;29823;47.404;8.566;2022-09-04T13:08:50;2.17;;;1.48;;
39242;SDS011;29823;47.404;8.566;2022-09-04T13:11:33;3.33;;;1.65;;
39242;SDS011;29823;47.404;8.566;2022-09-04T13:14:21;4.18;;;2.03;;
39242;SDS011;29823;47.404;8.566;2022-09-04T13:17:03;5.43;;;2.00;;
39242;SDS011;29823;47.404;8.566;2022-09-04T13:19:37;2.45;;;1.70;;
39242;SDS011;29823;47.404;8.566;2022-09-04T13:22:17;1.75;;;1.40;;
39242;SDS011;29823;47.404;8.566;2022-09-04T13:24:56;2.67;;;1.75;;
39242;SDS011;29823;47.404;8.566;2022-09-04T13:27:34;2.22;;;1.70;;
39242;SDS011;29823;47.404;8.566;2022-09-04T13:30:14;2.30;;;1.77;;
39242;SDS011;29823;47.404;8.566;2022-09-04T13:33:04;1.55;;;1.23;;
39242;SDS011;29823;47.404;8.566;2022-09-04T13:35:46;1.70;;;1.50;;
39242;SDS011;29823;47.404;8.566;2022-09-04T13:38:46;2.80;;;1.38;;
39242;SDS011;29823;47.404;8.566;2022-09-04T13:41:40;3.40;;;1.42;;
39242;SDS011;29823;47.404;8.566;2022-09-04T13:44:43;2.47;;;1.45;;
39242;SDS011;29823;47.404;8.566;2022-09-04T13:47:28;2.90;;;2.10;;
39242;SDS011;29823;47.404;8.566;2022-09-04T13:50:03;2.78;;;1.50;;
39242;SDS011;29823;47.404;8.566;2022-09-04T13:52:40;1.58;;;1.30;;
39242;SDS011;29823;47.404;8.566;2022-09-04T13:55:14;1.85;;;1.60;;
39242;SDS011;29823;47.404;8.566;2022-09-04T13:57:49;3.15;;;1.33;;
39242;SDS011;29823;47.404;8.566;2022-09-04T14:00:23;6.30;;;4.55;;
39242;SDS011;29823;47.404;8.566;2022-09-04T14:02:54;1.38;;;1.20;;
39242;SDS011;29823;47.404;8.566;2022-09-04T14:05:27;4.05;;;1.63;;
39242;SDS011;29823;47.404;8.566;2022-09-04T14:07:59;2.35;;;1.60;;
39242;SDS011;29823;47.404;8.566;2022-09-04T14:10:41;2.15;;;1.65;;
39242;SDS011;29823;47.404;8.566;2022-09-04T14:13:24;4.82;;;1.75;;
39242;SDS011;29823;47.404;8.566;2022-09-04T14:16:07;3.42;;;1.50;;
39242;SDS011;29823;47.404;8.566;2022-09-04T14:21:44;1.83;;;1.60;;
39242;SDS011;29823;47.404;8.566;2022-09-04T14:24:26;6.32;;;1.73;;
39242;SDS011;29823;47.404;8.566;2022-09-04T14:27:06;5.65;;;1.70;;
39242;SDS011;29823;47.404;8.566;2022-09-04T14:29:43;5.00;;;1.52;;
39242;SDS011;29823;47.404;8.566;2022-09-04T14:32:22;3.97;;;1.90;;
39242;SDS011;29823;47.404;8.566;2022-09-04T14:34:58;4.63;;;1.88;;
39242;SDS011;29823;47.404;8.566;2022-09-04T14:37:45;3.08;;;1.70;;
39242;SDS011;29823;47.404;8.566;2022-09-04T14:40:31;5.45;;;1.90;;
39242;SDS011;29823;47.404;8.566;2022-09-04T14:43:03;3.00;;;1.80;;
39242;SDS011;29823;47.404;8.566;2022-09-04T14:48:33;7.18;;;1.60;;
39242;SDS011;29823;47.404;8.566;2022-09-04T14:51:10;3.55;;;2.28;;
39242;SDS011;29823;47.404;8.566;2022-09-04T14:53:46;2.88;;;1.80;;
39242;SDS011;29823;47.404;8.566;2022-09-04T14:56:26;23.98;;;2.38;;
39242;SDS011;29823;47.404;8.566;2022-09-04T14:59:03;7.00;;;2.25;;
39242;SDS011;29823;47.404;8.566;2022-09-04T15:01:36;8.75;;;2.28;;
39242;SDS011;29823;47.404;8.566;2022-09-04T15:04:21;4.38;;;2.38;;
39242;SDS011;29823;47.404;8.566;2022-09-04T15:06:54;6.20;;;3.17;;
39242;SDS011;29823;47.404;8.566;2022-09-04T15:09:37;4.97;;;2.72;;
39242;SDS011;29823;47.404;8.566;2022-09-04T15:12:13;6.45;;;2.33;;
39242;SDS011;29823;47.404;8.566;2022-09-04T15:14:52;3.33;;;2.08;;
39242;SDS011;29823;47.404;8.566;2022-09-04T15:17:30;4.75;;;1.95;;
39242;SDS011;29823;47.404;8.566;2022-09-04T15:20:03;4.60;;;2.17;;
39242;SDS011;29823;47.404;8.566;2022-09-04T15:22:35;3.67;;;2.08;;
39242;SDS011;29823;47.404;8.566;2022-09-04T15:25:11;3.45;;;2.33;;
39242;SDS011;29823;47.404;8.566;2022-09-04T15:28:18;6.93;;;2.40;;
39242;SDS011;29823;47.404;8.566;2022-09-04T15:31:01;2.60;;;2.00;;
39242;SDS011;29823;47.404;8.566;2022-09-04T15:33:41;3.72;;;2.20;;
39242;SDS011;29823;47.404;8.566;2022-09-04T15:36:13;3.47;;;2.00;;
39242;SDS011;29823;47.404;8.566;2022-09-04T15:38:46;3.72;;;1.92;;
39242;SDS011;29823;47.404;8.566;2022-09-04T15:41:18;7.55;;;2.13;;
39242;SDS011;29823;47.404;8.566;2022-09-04T15:43:54;4.60;;;2.00;;
39242;SDS011;29823;47.404;8.566;2022-09-04T15:46:32;9.50;;;2.25;;
39242;SDS011;29823;47.404;8.566;2022-09-04T15:49:19;4.65;;;1.75;;
39242;SDS011;29823;47.404;8.566;2022-09-04T15:51:53;6.03;;;1.85;;
39242;SDS011;29823;47.404;8.566;2022-09-04T15:54:30;9.20;;;2.92;;
39242;SDS011;29823;47.404;8.566;2022-09-04T15:57:18;6.70;;;2.90;;
39242;SDS011;29823;47.404;8.566;2022-09-04T15:59:53;4.65;;;2.70;;
39242;SDS011;29823;47.404;8.566;2022-09-04T16:02:30;3.15;;;1.58;;
39242;SDS011;29823;47.404;8.566;2022-09-04T16:05:09;3.80;;;1.65;;
39242;SDS011;29823;47.404;8.566;2022-09-04T16:07:49;1.77;;;1.67;;
39242;SDS011;29823;47.404;8.566;2022-09-04T16:10:38;4.30;;;1.70;;
39242;SDS011;29823;47.404;8.566;2022-09-04T16:16:00;1.60;;;1.50;;
39242;SDS011;29823;47.404;8.566;2022-09-04T16:18:41;3.45;;;2.15;;
39242;SDS011;29823;47.404;8.566;2022-09-04T16:21:18;5.50;;;1.83;;
39242;SDS011;29823;47.404;8.566;2022-09-04T16:23:57;3.88;;;1.95;;
39242;SDS011;29823;47.404;8.566;2022-09-04T16:26:32;3.70;;;1.88;;
39242;SDS011;29823;47.404;8.566;2022-09-04T16:29:00;2.53;;;1.83;;
39242;SDS011;29823;47.404;8.566;2022-09-04T16:31:31;6.50;;;2.22;;
39242;SDS011;29823;47.404;8.566;2022-09-04T16:34:04;3.22;;;2.58;;
39242;SDS011;29823;47.404;8.566;2022-09-04T16:36:39;3.70;;;1.95;;
39242;SDS011;29823;47.404;8.566;2022-09-04T16:39:11;4.18;;;2.33;;
39242;SDS011;29823;47.404;8.566;2022-09-04T16:41:51;2.35;;;2.00;;
39242;SDS011;29823;47.404;8.566;2022-09-04T16:44:25;5.00;;;2.22;;
39242;SDS011;29823;47.404;8.566;2022-09-04T16:46:57;2.78;;;2.15;;
39242;SDS011;29823;47.404;8.566;2022-09-04T16:49:35;10.23;;;2.20;;
39242;SDS011;29823;47.404;8.566;2022-09-04T16:52:20;5.18;;;1.92;;
39242;SDS011;29823;47.404;8.566;2022-09-04T16:55:00;5.18;;;2.03;;
39242;SDS011;29823;47.404;8.566;2022-09-04T16:57:36;3.15;;;2.38;;
39242;SDS011;29823;47.404;8.566;2022-09-04T17:00:10;4.43;;;2.28;;
39242;SDS011;29823;47.404;8.566;2022-09-04T17:02:43;4.55;;;2.13;;
39242;SDS011;29823;47.404;8.566;2022-09-04T17:05:18;2.45;;;1.90;;
39242;SDS011;29823;47.404;8.566;2022-09-04T17:07:54;6.43;;;2.40;;
39242;SDS011;29823;47.404;8.566;2022-09-04T17:10:33;6.90;;;2.40;;
39242;SDS011;29823;47.404;8.566;2022-09-04T17:13:07;3.60;;;2.20;;
39242;SDS011;29823;47.404;8.566;2022-09-04T17:15:47;5.10;;;2.20;;
39242;SDS011;29823;47.404;8.566;2022-09-04T17:18:20;4.10;;;2.17;;
39242;SDS011;29823;47.404;8.566;2022-09-04T17:20:54;8.57;;;2.33;;
39242;SDS011;29823;47.404;8.566;2022-09-04T17:23:48;4.53;;;2.40;;
39242;SDS011;29823;47.404;8.566;2022-09-04T17:26:43;3.85;;;2.28;;
39242;SDS011;29823;47.404;8.566;2022-09-04T17:29:36;4.68;;;2.50;;
39242;SDS011;29823;47.404;8.566;2022-09-04T17:32:14;5.03;;;2.10;;
39242;SDS011;29823;47.404;8.566;2022-09-04T17:35:11;3.58;;;2.22;;
39242;SDS011;29823;47.404;8.566;2022-09-04T17:38:08;6.43;;;2.63;;
39242;SDS011;29823;47.404;8.566;2022-09-04T17:41:09;7.15;;;2.45;;
39242;SDS011;29823;47.404;8.566;2022-09-04T17:44:15;7.20;;;2.42;;
39242;SDS011;29823;47.404;8.566;2022-09-04T17:46:58;4.10;;;2.10;;
39242;SDS011;29823;47.404;8.566;2022-09-04T17:49:39;4.80;;;2.40;;
39242;SDS011;29823;47.404;8.566;2022-09-04T17:52:11;8.98;;;2.58;;
39242;SDS011;29823;47.404;8.566;2022-09-04T17:54:50;3.08;;;2.53;;
39242;SDS011;29823;47.404;8.566;2022-09-04T17:57:20;4.25;;;2.72;;
39242;SDS011;29823;47.404;8.566;2022-09-04T17:59:53;4.88;;;2.25;;
39242;SDS011;29823;47.404;8.566;2022-09-04T18:02:26;7.10;;;2.60;;
39242;SDS011;29823;47.404;8.566;2022-09-04T18:05:07;6.22;;;2.72;;
39242;SDS011;29823;47.404;8.566;2022-09-04T18:07:41;7.45;;;2.38;;
39242;SDS011;29823;47.404;8.566;2022-09-04T18:10:38;3.95;;;2.50;;
39242;SDS011;29823;47.404;8.566;2022-09-04T18:13:17;4.75;;;2.03;;
39242;SDS011;29823;47.404;8.566;2022-09-04T18:16:15;4.40;;;2.88;;
39242;SDS011;29823;47.404;8.566;2022-09-04T18:19:29;6.20;;;2.40;;
39242;SDS011;29823;47.404;8.566;2022-09-04T18:22:04;5.10;;;2.55;;